sensor_id;sensor_type;location;lat;lon;timestamp;temperature;humidity
68485;DHT22;55472;50.060;21.960;2023-02-01T00:00:50;-0.50;99.90
68485;DHT22;55472;50.060;21.960;2023-02-01T00:03:26;-0.50;99.90
68485;DHT22;55472;50.060;21.960;2023-02-01T00:05:59;-0.50;99.90
68485;DHT22;55472;50.060;21.960;2023-02-01T00:08:26;-0.40;99.90
68485;DHT22;55472;50.060;21.960;2023-02-01T00:11:03;-0.40;99.90
68485;DHT22;55472;50.060;21.960;2023-02-01T00:13:36;-0.40;99.90
68485;DHT22;55472;50.060;21.960;2023-02-01T00:16:15;-0.40;99.90
68485;DHT22;55472;50.060;21.960;2023-02-01T00:18:44;-0.40;99.90
68485;DHT22;55472;50.060;21.960;2023-02-01T00:21:11;-0.40;99.90
68485;DHT22;55472;50.060;21.960;2023-02-01T00:23:42;-0.40;99.90
68485;DHT22;55472;50.060;21.960;2023-02-01T00:26:18;-0.40;99.90
68485;DHT22;55472;50.060;21.960;2023-02-01T00:28:46;-0.40;99.90
68485;DHT22;55472;50.060;21.960;2023-02-01T00:31:12;-0.40;99.90
68485;DHT22;55472;50.060;21.960;2023-02-01T00:33:38;-0.40;99.90
68485;DHT22;55472;50.060;21.960;2023-02-01T00:36:06;-0.40;99.90
68485;DHT22;55472;50.060;21.960;2023-02-01T00:38:36;-0.40;99.90
68485;DHT22;55472;50.060;21.960;2023-02-01T00:41:04;-0.40;99.90
68485;DHT22;55472;50.060;21.960;2023-02-01T00:43:34;-0.40;99.90
68485;DHT22;55472;50.060;21.960;2023-02-01T00:46:00;-0.40;99.90
68485;DHT22;55472;50.060;21.960;2023-02-01T00:48:26;-0.40;99.90
68485;DHT22;55472;50.060;21.960;2023-02-01T00:50:53;-0.40;99.90
68485;DHT22;55472;50.060;21.960;2023-02-01T00:53:19;-0.40;99.90
68485;DHT22;55472;50.060;21.960;2023-02-01T00:55:48;-0.40;99.90
68485;DHT22;55472;50.060;21.960;2023-02-01T00:58:15;-0.30;99.90
68485;DHT22;55472;50.060;21.960;2023-02-01T01:00:41;-0.30;99.90
68485;DHT22;55472;50.060;21.960;2023-02-01T01:03:07;-0.30;99.90
68485;DHT22;55472;50.060;21.960;2023-02-01T01:05:47;-0.20;99.90
68485;DHT22;55472;50.060;21.960;2023-02-01T01:08:15;-0.20;99.90
68485;DHT22;55472;50.060;21.960;2023-02-01T01:10:42;-0.20;99.90
68485;DHT22;55472;50.060;21.960;2023-02-01T01:13:09;-0.10;99.90
68485;DHT22;55472;50.060;21.960;2023-02-01T01:15:40;-0.10;99.90
68485;DHT22;55472;50.060;21.960;2023-02-01T01:18:07;-0.10;99.90
68485;DHT22;55472;50.060;21.960;2023-02-01T01:20:38;0.00;99.90
68485;DHT22;55472;50.060;21.960;2023-02-01T01:23:06;0.00;99.90
68485;DHT22;55472;50.060;21.960;2023-02-01T01:25:37;0.00;99.90
68485;DHT22;55472;50.060;21.960;2023-02-01T01:28:05;0.10;99.90
68485;DHT22;55472;50.060;21.960;2023-02-01T01:30:34;0.10;99.90
68485;DHT22;55472;50.060;21.960;2023-02-01T01:33:01;0.10;99.90
68485;DHT22;55472;50.060;21.960;2023-02-01T01:35:29;0.20;99.90
68485;DHT22;55472;50.060;21.960;2023-02-01T01:37:58;0.20;99.90
68485;DHT22;55472;50.060;21.960;2023-02-01T01:40:27;0.20;99.90
68485;DHT22;55472;50.060;21.960;2023-02-01T01:42:54;0.30;99.90
68485;DHT22;55472;50.060;21.960;2023-02-01T01:45:30;0.30;99.90
68485;DHT22;55472;50.060;21.960;2023-02-01T01:48:04;0.30;99.90
68485;DHT22;55472;50.060;21.960;2023-02-01T01:50:39;0.30;99.90
68485;DHT22;55472;50.060;21.960;2023-02-01T01:53:11;0.40;99.90
68485;DHT22;55472;50.060;21.960;2023-02-01T01:55:42;0.40;99.90
68485;DHT22;55472;50.060;21.960;2023-02-01T01:58:14;0.40;99.90
68485;DHT22;55472;50.060;21.960;2023-02-01T02:03:40;0.50;99.90
68485;DHT22;55472;50.060;21.960;2023-02-01T02:09:14;0.50;99.90
68485;DHT22;55472;50.060;21.960;2023-02-01T02:11:41;0.50;99.90
68485;DHT22;55472;50.060;21.960;2023-02-01T02:14:10;0.50;99.90
68485;DHT22;55472;50.060;21.960;2023-02-01T02:23:09;0.60;99.90
68485;DHT22;55472;50.060;21.960;2023-02-01T02:34:07;0.60;99.90
68485;DHT22;55472;50.060;21.960;2023-02-01T02:42:31;0.70;99.90
68485;DHT22;55472;50.060;21.960;2023-02-01T02:45:44;0.70;99.90
68485;DHT22;55472;50.060;21.960;2023-02-01T02:48:47;0.80;99.90
68485;DHT22;55472;50.060;21.960;2023-02-01T02:51:46;0.80;99.90
68485;DHT22;55472;50.060;21.960;2023-02-01T02:54:37;0.90;99.90
68485;DHT22;55472;50.060;21.960;2023-02-01T03:00:07;0.90;99.90
68485;DHT22;55472;50.060;21.960;2023-02-01T03:02:55;0.90;99.90
68485;DHT22;55472;50.060;21.960;2023-02-01T03:05:45;0.90;99.90
68485;DHT22;55472;50.060;21.960;2023-02-01T03:08:18;0.90;99.90
68485;DHT22;55472;50.060;21.960;2023-02-01T03:16:33;0.90;99.90
68485;DHT22;55472;50.060;21.960;2023-02-01T03:19:09;0.90;99.90
68485;DHT22;55472;50.060;21.960;2023-02-01T03:21:50;0.90;99.90
68485;DHT22;55472;50.060;21.960;2023-02-01T03:24:44;0.90;99.90
68485;DHT22;55472;50.060;21.960;2023-02-01T03:32:48;0.80;99.90
68485;DHT22;55472;50.060;21.960;2023-02-01T03:41:25;0.80;99.90
68485;DHT22;55472;50.060;21.960;2023-02-01T03:44:19;0.80;99.90
68485;DHT22;55472;50.060;21.960;2023-02-01T03:47:29;0.70;99.90
68485;DHT22;55472;50.060;21.960;2023-02-01T03:50:02;0.70;99.90
68485;DHT22;55472;50.060;21.960;2023-02-01T03:52:40;0.70;99.90
68485;DHT22;55472;50.060;21.960;2023-02-01T03:55:09;0.70;99.90
68485;DHT22;55472;50.060;21.960;2023-02-01T03:57:43;0.70;99.90
68485;DHT22;55472;50.060;21.960;2023-02-01T04:00:18;0.70;99.90
68485;DHT22;55472;50.060;21.960;2023-02-01T04:02:48;0.70;99.90
68485;DHT22;55472;50.060;21.960;2023-02-01T04:05:14;0.70;99.90
68485;DHT22;55472;50.060;21.960;2023-02-01T04:07:41;0.70;99.90
68485;DHT22;55472;50.060;21.960;2023-02-01T04:10:07;0.60;99.90
68485;DHT22;55472;50.060;21.960;2023-02-01T04:12:34;0.60;99.90
68485;DHT22;55472;50.060;21.960;2023-02-01T04:15:00;0.60;99.90
68485;DHT22;55472;50.060;21.960;2023-02-01T04:17:27;0.50;99.90
68485;DHT22;55472;50.060;21.960;2023-02-01T04:19:53;0.50;99.90
68485;DHT22;55472;50.060;21.960;2023-02-01T04:22:19;0.50;99.90
68485;DHT22;55472;50.060;21.960;2023-02-01T04:24:46;0.50;99.90
68485;DHT22;55472;50.060;21.960;2023-02-01T04:27:12;0.50;99.90
68485;DHT22;55472;50.060;21.960;2023-02-01T04:29:39;0.50;99.90
68485;DHT22;55472;50.060;21.960;2023-02-01T04:32:05;0.50;99.90
68485;DHT22;55472;50.060;21.960;2023-02-01T04:34:31;0.50;99.90
68485;DHT22;55472;50.060;21.960;2023-02-01T04:36:58;0.50;99.90
68485;DHT22;55472;50.060;21.960;2023-02-01T04:39:24;0.50;99.90
68485;DHT22;55472;50.060;21.960;2023-02-01T04:41:50;0.50;99.90
68485;DHT22;55472;50.060;21.960;2023-02-01T04:44:17;0.40;99.90
68485;DHT22;55472;50.060;21.960;2023-02-01T04:46:45;0.50;99.90
68485;DHT22;55472;50.060;21.960;2023-02-01T04:49:13;0.40;99.90
68485;DHT22;55472;50.060;21.960;2023-02-01T04:51:40;0.50;99.90
68485;DHT22;55472;50.060;21.960;2023-02-01T04:54:07;0.50;99.90
68485;DHT22;55472;50.060;21.960;2023-02-01T04:56:37;0.50;99.90
68485;DHT22;55472;50.060;21.960;2023-02-01T04:59:04;0.50;99.90
68485;DHT22;55472;50.060;21.960;2023-02-01T05:01:31;0.50;99.90
68485;DHT22;55472;50.060;21.960;2023-02-01T05:03:57;0.50;99.90
68485;DHT22;55472;50.060;21.960;2023-02-01T05:06:27;0.50;99.90
68485;DHT22;55472;50.060;21.960;2023-02-01T05:08:53;0.50;99.90
68485;DHT22;55472;50.060;21.960;2023-02-01T05:11:19;0.50;99.90
68485;DHT22;55472;50.060;21.960;2023-02-01T05:14:04;0.50;99.90
68485;DHT22;55472;50.060;21.960;2023-02-01T05:16:30;0.50;99.90
68485;DHT22;55472;50.060;21.960;2023-02-01T05:18:56;0.50;99.90
68485;DHT22;55472;50.060;21.960;2023-02-01T05:21:23;0.50;99.90
68485;DHT22;55472;50.060;21.960;2023-02-01T05:23:50;0.50;99.90
68485;DHT22;55472;50.060;21.960;2023-02-01T05:26:38;0.40;99.90
68485;DHT22;55472;50.060;21.960;2023-02-01T05:29:07;0.40;99.90
68485;DHT22;55472;50.060;21.960;2023-02-01T05:31:34;0.40;99.90
68485;DHT22;55472;50.060;21.960;2023-02-01T05:34:00;0.30;99.90
68485;DHT22;55472;50.060;21.960;2023-02-01T05:36:26;0.30;99.90
68485;DHT22;55472;50.060;21.960;2023-02-01T05:38:52;0.30;99.90
68485;DHT22;55472;50.060;21.960;2023-02-01T05:41:19;0.30;99.90
68485;DHT22;55472;50.060;21.960;2023-02-01T05:43:45;0.30;99.90
68485;DHT22;55472;50.060;21.960;2023-02-01T05:46:11;0.30;99.90
68485;DHT22;55472;50.060;21.960;2023-02-01T05:48:39;0.30;99.90
68485;DHT22;55472;50.060;21.960;2023-02-01T05:51:06;0.40;99.90
68485;DHT22;55472;50.060;21.960;2023-02-01T05:53:33;0.40;99.90
68485;DHT22;55472;50.060;21.960;2023-02-01T05:55:59;0.40;99.90
68485;DHT22;55472;50.060;21.960;2023-02-01T05:58:25;0.40;99.90
68485;DHT22;55472;50.060;21.960;2023-02-01T06:00:52;0.40;99.90
68485;DHT22;55472;50.060;21.960;2023-02-01T06:03:18;0.50;99.90
68485;DHT22;55472;50.060;21.960;2023-02-01T06:05:46;0.50;99.70
68485;DHT22;55472;50.060;21.960;2023-02-01T06:08:13;0.50;99.60
68485;DHT22;55472;50.060;21.960;2023-02-01T06:10:40;0.50;99.40
68485;DHT22;55472;50.060;21.960;2023-02-01T06:13:06;0.50;99.40
68485;DHT22;55472;50.060;21.960;2023-02-01T06:15:33;0.50;99.50
68485;DHT22;55472;50.060;21.960;2023-02-01T06:17:59;0.50;99.10
68485;DHT22;55472;50.060;21.960;2023-02-01T06:20:25;0.50;98.80
68485;DHT22;55472;50.060;21.960;2023-02-01T06:22:51;0.60;98.50
68485;DHT22;55472;50.060;21.960;2023-02-01T06:25:18;0.60;98.30
68485;DHT22;55472;50.060;21.960;2023-02-01T06:27:45;0.60;98.30
68485;DHT22;55472;50.060;21.960;2023-02-01T06:30:12;0.60;98.10
68485;DHT22;55472;50.060;21.960;2023-02-01T06:32:41;0.60;98.20
68485;DHT22;55472;50.060;21.960;2023-02-01T06:35:08;0.60;98.40
68485;DHT22;55472;50.060;21.960;2023-02-01T06:37:37;0.70;98.00
68485;DHT22;55472;50.060;21.960;2023-02-01T06:40:04;0.70;98.10
68485;DHT22;55472;50.060;21.960;2023-02-01T06:42:30;0.70;98.00
68485;DHT22;55472;50.060;21.960;2023-02-01T06:44:58;0.70;98.00
68485;DHT22;55472;50.060;21.960;2023-02-01T06:47:24;0.70;98.20
68485;DHT22;55472;50.060;21.960;2023-02-01T06:49:51;0.70;98.20
68485;DHT22;55472;50.060;21.960;2023-02-01T06:52:17;0.70;98.10
68485;DHT22;55472;50.060;21.960;2023-02-01T06:54:43;0.80;98.00
68485;DHT22;55472;50.060;21.960;2023-02-01T06:57:09;0.80;98.00
68485;DHT22;55472;50.060;21.960;2023-02-01T06:59:35;0.80;98.00
68485;DHT22;55472;50.060;21.960;2023-02-01T07:02:02;0.80;97.70
68485;DHT22;55472;50.060;21.960;2023-02-01T07:04:28;0.90;97.50
68485;DHT22;55472;50.060;21.960;2023-02-01T07:06:54;0.90;97.20
68485;DHT22;55472;50.060;21.960;2023-02-01T07:09:21;0.90;96.90
68485;DHT22;55472;50.060;21.960;2023-02-01T07:11:47;0.90;96.50
68485;DHT22;55472;50.060;21.960;2023-02-01T07:14:13;0.90;96.50
68485;DHT22;55472;50.060;21.960;2023-02-01T07:16:39;1.00;96.40
68485;DHT22;55472;50.060;21.960;2023-02-01T07:19:06;1.00;96.30
68485;DHT22;55472;50.060;21.960;2023-02-01T07:21:32;1.00;96.00
68485;DHT22;55472;50.060;21.960;2023-02-01T07:23:58;1.00;95.70
68485;DHT22;55472;50.060;21.960;2023-02-01T07:26:25;1.10;95.50
68485;DHT22;55472;50.060;21.960;2023-02-01T07:28:51;1.10;94.90
68485;DHT22;55472;50.060;21.960;2023-02-01T07:31:18;1.10;95.10
68485;DHT22;55472;50.060;21.960;2023-02-01T07:33:48;1.10;94.90
68485;DHT22;55472;50.060;21.960;2023-02-01T07:36:18;1.20;94.60
68485;DHT22;55472;50.060;21.960;2023-02-01T07:38:46;1.20;94.30
68485;DHT22;55472;50.060;21.960;2023-02-01T07:41:17;1.20;94.50
68485;DHT22;55472;50.060;21.960;2023-02-01T07:43:43;1.20;94.20
68485;DHT22;55472;50.060;21.960;2023-02-01T07:46:10;1.30;94.10
68485;DHT22;55472;50.060;21.960;2023-02-01T07:48:37;1.30;94.00
68485;DHT22;55472;50.060;21.960;2023-02-01T07:51:08;1.30;94.00
68485;DHT22;55472;50.060;21.960;2023-02-01T07:53:36;1.30;93.90
68485;DHT22;55472;50.060;21.960;2023-02-01T07:56:03;1.40;93.20
68485;DHT22;55472;50.060;21.960;2023-02-01T07:58:30;1.40;93.10
68485;DHT22;55472;50.060;21.960;2023-02-01T08:00:56;1.40;93.10
68485;DHT22;55472;50.060;21.960;2023-02-01T08:03:41;1.30;93.10
68485;DHT22;55472;50.060;21.960;2023-02-01T08:06:07;1.40;92.60
68485;DHT22;55472;50.060;21.960;2023-02-01T08:08:34;1.40;92.40
68485;DHT22;55472;50.060;21.960;2023-02-01T08:11:01;1.40;92.70
68485;DHT22;55472;50.060;21.960;2023-02-01T08:13:29;1.40;92.40
68485;DHT22;55472;50.060;21.960;2023-02-01T08:16:00;1.40;92.40
68485;DHT22;55472;50.060;21.960;2023-02-01T08:18:28;1.40;92.30
68485;DHT22;55472;50.060;21.960;2023-02-01T08:20:55;1.40;92.20
68485;DHT22;55472;50.060;21.960;2023-02-01T08:23:22;1.40;92.20
68485;DHT22;55472;50.060;21.960;2023-02-01T08:25:49;1.50;92.80
68485;DHT22;55472;50.060;21.960;2023-02-01T08:28:15;1.50;92.60
68485;DHT22;55472;50.060;21.960;2023-02-01T08:30:41;1.50;92.20
68485;DHT22;55472;50.060;21.960;2023-02-01T08:33:08;1.50;91.70
68485;DHT22;55472;50.060;21.960;2023-02-01T08:35:35;1.50;91.80
68485;DHT22;55472;50.060;21.960;2023-02-01T08:38:02;1.50;91.70
68485;DHT22;55472;50.060;21.960;2023-02-01T08:40:28;1.50;91.60
68485;DHT22;55472;50.060;21.960;2023-02-01T08:42:55;1.60;91.00
68485;DHT22;55472;50.060;21.960;2023-02-01T08:45:25;1.60;91.30
68485;DHT22;55472;50.060;21.960;2023-02-01T08:47:54;1.70;91.50
68485;DHT22;55472;50.060;21.960;2023-02-01T08:50:22;1.80;91.40
68485;DHT22;55472;50.060;21.960;2023-02-01T08:52:48;1.80;90.20
68485;DHT22;55472;50.060;21.960;2023-02-01T08:55:15;1.90;89.40
68485;DHT22;55472;50.060;21.960;2023-02-01T08:57:42;1.90;89.10
68485;DHT22;55472;50.060;21.960;2023-02-01T09:00:12;1.90;89.30
68485;DHT22;55472;50.060;21.960;2023-02-01T09:02:41;2.00;88.30
68485;DHT22;55472;50.060;21.960;2023-02-01T09:05:08;2.00;88.00
68485;DHT22;55472;50.060;21.960;2023-02-01T09:07:37;2.10;87.60
68485;DHT22;55472;50.060;21.960;2023-02-01T09:10:03;2.10;87.60
68485;DHT22;55472;50.060;21.960;2023-02-01T09:12:32;2.10;87.10
68485;DHT22;55472;50.060;21.960;2023-02-01T09:14:59;2.30;86.50
68485;DHT22;55472;50.060;21.960;2023-02-01T09:17:26;2.30;86.30
68485;DHT22;55472;50.060;21.960;2023-02-01T09:19:53;2.40;86.20
68485;DHT22;55472;50.060;21.960;2023-02-01T09:22:20;2.40;85.70
68485;DHT22;55472;50.060;21.960;2023-02-01T09:24:46;2.40;85.60
68485;DHT22;55472;50.060;21.960;2023-02-01T09:27:13;2.40;85.20
68485;DHT22;55472;50.060;21.960;2023-02-01T09:29:39;2.40;85.70
68485;DHT22;55472;50.060;21.960;2023-02-01T09:32:05;2.40;84.60
68485;DHT22;55472;50.060;21.960;2023-02-01T09:34:33;2.40;85.40
68485;DHT22;55472;50.060;21.960;2023-02-01T09:37:00;2.40;85.20
68485;DHT22;55472;50.060;21.960;2023-02-01T09:39:28;2.40;85.20
68485;DHT22;55472;50.060;21.960;2023-02-01T09:48:18;2.20;87.10
68485;DHT22;55472;50.060;21.960;2023-02-01T09:50:57;2.10;87.90
68485;DHT22;55472;50.060;21.960;2023-02-01T09:53:32;2.00;88.40
68485;DHT22;55472;50.060;21.960;2023-02-01T09:56:12;2.00;88.30
68485;DHT22;55472;50.060;21.960;2023-02-01T10:01:26;2.00;89.20
68485;DHT22;55472;50.060;21.960;2023-02-01T10:04:03;2.10;89.70
68485;DHT22;55472;50.060;21.960;2023-02-01T10:13:08;2.20;89.10
68485;DHT22;55472;50.060;21.960;2023-02-01T10:25:37;2.40;86.20
68485;DHT22;55472;50.060;21.960;2023-02-01T10:28:16;2.50;86.00
68485;DHT22;55472;50.060;21.960;2023-02-01T10:30:45;2.50;85.20
68485;DHT22;55472;50.060;21.960;2023-02-01T10:33:25;2.60;84.50
68485;DHT22;55472;50.060;21.960;2023-02-01T10:36:59;2.70;85.20
68485;DHT22;55472;50.060;21.960;2023-02-01T10:39:18;2.70;83.80
68485;DHT22;55472;50.060;21.960;2023-02-01T10:41:45;2.70;83.00
68485;DHT22;55472;50.060;21.960;2023-02-01T10:44:15;2.80;83.20
68485;DHT22;55472;50.060;21.960;2023-02-01T10:46:43;2.80;82.40
68485;DHT22;55472;50.060;21.960;2023-02-01T10:49:17;2.80;82.60
68485;DHT22;55472;50.060;21.960;2023-02-01T10:52:17;2.90;82.90
68485;DHT22;55472;50.060;21.960;2023-02-01T10:54:47;3.00;82.90
68485;DHT22;55472;50.060;21.960;2023-02-01T10:57:31;3.20;82.10
68485;DHT22;55472;50.060;21.960;2023-02-01T11:00:03;3.30;82.20
68485;DHT22;55472;50.060;21.960;2023-02-01T11:02:44;3.40;81.20
68485;DHT22;55472;50.060;21.960;2023-02-01T11:05:11;3.50;79.20
68485;DHT22;55472;50.060;21.960;2023-02-01T11:07:39;3.60;78.90
68485;DHT22;55472;50.060;21.960;2023-02-01T11:13:04;3.70;77.90
68485;DHT22;55472;50.060;21.960;2023-02-01T11:15:31;3.90;78.10
68485;DHT22;55472;50.060;21.960;2023-02-01T11:18:14;4.10;77.00
68485;DHT22;55472;50.060;21.960;2023-02-01T11:20:42;4.30;75.10
68485;DHT22;55472;50.060;21.960;2023-02-01T11:23:16;4.30;74.30
68485;DHT22;55472;50.060;21.960;2023-02-01T11:28:29;4.20;74.30
68485;DHT22;55472;50.060;21.960;2023-02-01T11:31:00;4.10;74.10
68485;DHT22;55472;50.060;21.960;2023-02-01T11:33:33;4.00;74.10
68485;DHT22;55472;50.060;21.960;2023-02-01T11:36:15;3.90;74.40
68485;DHT22;55472;50.060;21.960;2023-02-01T11:41:42;3.70;76.30
68485;DHT22;55472;50.060;21.960;2023-02-01T11:44:35;3.60;76.30
68485;DHT22;55472;50.060;21.960;2023-02-01T11:47:23;3.60;76.20
68485;DHT22;55472;50.060;21.960;2023-02-01T11:49:56;3.80;76.00
68485;DHT22;55472;50.060;21.960;2023-02-01T11:55:38;4.30;74.40
68485;DHT22;55472;50.060;21.960;2023-02-01T11:58:31;4.50;74.50
68485;DHT22;55472;50.060;21.960;2023-02-01T12:01:21;4.80;73.70
68485;DHT22;55472;50.060;21.960;2023-02-01T12:07:21;5.10;71.80
68485;DHT22;55472;50.060;21.960;2023-02-01T12:10:36;5.20;70.70
68485;DHT22;55472;50.060;21.960;2023-02-01T12:21:57;4.90;71.60
68485;DHT22;55472;50.060;21.960;2023-02-01T12:39:22;4.30;74.50
68485;DHT22;55472;50.060;21.960;2023-02-01T12:44:59;4.30;74.50
68485;DHT22;55472;50.060;21.960;2023-02-01T12:47:59;4.20;74.60
68485;DHT22;55472;50.060;21.960;2023-02-01T12:50:34;4.20;74.70
68485;DHT22;55472;50.060;21.960;2023-02-01T12:55:57;4.00;74.70
68485;DHT22;55472;50.060;21.960;2023-02-01T13:01:40;3.90;75.70
68485;DHT22;55472;50.060;21.960;2023-02-01T13:07:16;3.80;75.50
68485;DHT22;55472;50.060;21.960;2023-02-01T13:09:50;3.80;75.50
68485;DHT22;55472;50.060;21.960;2023-02-01T13:13:11;3.80;75.50
68485;DHT22;55472;50.060;21.960;2023-02-01T13:15:56;3.70;75.60
68485;DHT22;55472;50.060;21.960;2023-02-01T13:18:28;3.70;76.30
68485;DHT22;55472;50.060;21.960;2023-02-01T13:21:08;3.70;76.10
68485;DHT22;55472;50.060;21.960;2023-02-01T13:23:40;3.70;76.40
68485;DHT22;55472;50.060;21.960;2023-02-01T13:26:07;3.60;76.70
68485;DHT22;55472;50.060;21.960;2023-02-01T13:28:46;3.60;76.90
68485;DHT22;55472;50.060;21.960;2023-02-01T13:31:56;3.60;77.30
68485;DHT22;55472;50.060;21.960;2023-02-01T13:40:41;3.50;76.70
68485;DHT22;55472;50.060;21.960;2023-02-01T13:43:22;3.50;76.30
68485;DHT22;55472;50.060;21.960;2023-02-01T13:45:54;3.50;76.30
68485;DHT22;55472;50.060;21.960;2023-02-01T13:48:49;3.50;76.10
68485;DHT22;55472;50.060;21.960;2023-02-01T13:51:41;3.50;75.90
68485;DHT22;55472;50.060;21.960;2023-02-01T13:54:31;3.40;76.10
68485;DHT22;55472;50.060;21.960;2023-02-01T13:57:05;3.40;76.70
68485;DHT22;55472;50.060;21.960;2023-02-01T13:59:51;3.30;76.90
68485;DHT22;55472;50.060;21.960;2023-02-01T14:02:46;3.30;77.20
68485;DHT22;55472;50.060;21.960;2023-02-01T14:13:41;3.10;77.90
68485;DHT22;55472;50.060;21.960;2023-02-01T14:16:13;3.10;78.20
68485;DHT22;55472;50.060;21.960;2023-02-01T14:21:34;3.00;78.50
68485;DHT22;55472;50.060;21.960;2023-02-01T14:24:25;3.00;78.60
68485;DHT22;55472;50.060;21.960;2023-02-01T14:29:49;3.00;79.10
68485;DHT22;55472;50.060;21.960;2023-02-01T14:34:57;2.90;79.50
68485;DHT22;55472;50.060;21.960;2023-02-01T14:37:31;2.90;79.50
68485;DHT22;55472;50.060;21.960;2023-02-01T14:40:14;2.90;79.80
68485;DHT22;55472;50.060;21.960;2023-02-01T14:42:50;2.90;79.80
68485;DHT22;55472;50.060;21.960;2023-02-01T14:47:46;2.90;79.80
68485;DHT22;55472;50.060;21.960;2023-02-01T14:55:59;2.80;79.80
68485;DHT22;55472;50.060;21.960;2023-02-01T15:17:29;2.70;81.70
68485;DHT22;55472;50.060;21.960;2023-02-01T15:20:14;2.70;82.10
68485;DHT22;55472;50.060;21.960;2023-02-01T15:22:56;2.60;82.10
68485;DHT22;55472;50.060;21.960;2023-02-01T15:25:31;2.60;82.30
68485;DHT22;55472;50.060;21.960;2023-02-01T15:28:01;2.60;82.30
68485;DHT22;55472;50.060;21.960;2023-02-01T15:30:29;2.60;82.10
68485;DHT22;55472;50.060;21.960;2023-02-01T15:33:17;2.50;82.20
68485;DHT22;55472;50.060;21.960;2023-02-01T15:35:47;2.50;82.00
68485;DHT22;55472;50.060;21.960;2023-02-01T15:40:57;2.50;82.00
68485;DHT22;55472;50.060;21.960;2023-02-01T15:43:26;2.50;81.90
68485;DHT22;55472;50.060;21.960;2023-02-01T15:45:57;2.50;82.10
68485;DHT22;55472;50.060;21.960;2023-02-01T15:48:26;2.40;82.10
68485;DHT22;55472;50.060;21.960;2023-02-01T15:50:54;2.40;82.20
68485;DHT22;55472;50.060;21.960;2023-02-01T15:53:24;2.30;82.40
68485;DHT22;55472;50.060;21.960;2023-02-01T15:55:55;2.30;82.40
68485;DHT22;55472;50.060;21.960;2023-02-01T15:58:26;2.20;82.70
68485;DHT22;55472;50.060;21.960;2023-02-01T16:00:56;2.20;83.00
68485;DHT22;55472;50.060;21.960;2023-02-01T16:06:09;2.20;83.00
68485;DHT22;55472;50.060;21.960;2023-02-01T16:08:55;2.10;83.20
68485;DHT22;55472;50.060;21.960;2023-02-01T16:11:31;2.10;83.60
68485;DHT22;55472;50.060;21.960;2023-02-01T16:13:59;2.10;83.90
68485;DHT22;55472;50.060;21.960;2023-02-01T16:16:28;2.10;83.90
68485;DHT22;55472;50.060;21.960;2023-02-01T16:18:54;2.10;84.20
68485;DHT22;55472;50.060;21.960;2023-02-01T16:21:20;2.10;84.10
68485;DHT22;55472;50.060;21.960;2023-02-01T16:23:51;2.10;84.10
68485;DHT22;55472;50.060;21.960;2023-02-01T16:26:18;2.10;83.90
68485;DHT22;55472;50.060;21.960;2023-02-01T16:28:45;2.00;84.10
68485;DHT22;55472;50.060;21.960;2023-02-01T16:31:14;2.00;84.20
68485;DHT22;55472;50.060;21.960;2023-02-01T16:33:51;2.10;84.20
68485;DHT22;55472;50.060;21.960;2023-02-01T16:36:18;2.10;84.10
68485;DHT22;55472;50.060;21.960;2023-02-01T16:38:45;2.10;84.20
68485;DHT22;55472;50.060;21.960;2023-02-01T16:41:19;2.00;84.30
68485;DHT22;55472;50.060;21.960;2023-02-01T16:43:50;2.00;84.40
68485;DHT22;55472;50.060;21.960;2023-02-01T16:46:20;2.00;84.30
68485;DHT22;55472;50.060;21.960;2023-02-01T16:48:54;2.00;84.50
68485;DHT22;55472;50.060;21.960;2023-02-01T16:51:23;2.00;84.60
68485;DHT22;55472;50.060;21.960;2023-02-01T16:53:52;2.00;84.80
68485;DHT22;55472;50.060;21.960;2023-02-01T16:56:25;2.00;84.70
68485;DHT22;55472;50.060;21.960;2023-02-01T16:58:55;2.00;84.80
68485;DHT22;55472;50.060;21.960;2023-02-01T17:01:21;2.00;85.10
68485;DHT22;55472;50.060;21.960;2023-02-01T17:03:48;2.00;85.30
68485;DHT22;55472;50.060;21.960;2023-02-01T17:06:18;2.00;85.90
68485;DHT22;55472;50.060;21.960;2023-02-01T17:08:52;2.00;86.80
68485;DHT22;55472;50.060;21.960;2023-02-01T17:11:20;2.00;87.90
68485;DHT22;55472;50.060;21.960;2023-02-01T17:13:50;1.90;88.90
68485;DHT22;55472;50.060;21.960;2023-02-01T17:19:16;1.80;90.80
68485;DHT22;55472;50.060;21.960;2023-02-01T17:21:57;1.70;91.50
68485;DHT22;55472;50.060;21.960;2023-02-01T17:24:30;1.70;92.10
68485;DHT22;55472;50.060;21.960;2023-02-01T17:26:57;1.60;92.60
68485;DHT22;55472;50.060;21.960;2023-02-01T17:29:23;1.50;93.10
68485;DHT22;55472;50.060;21.960;2023-02-01T17:31:53;1.50;93.60
68485;DHT22;55472;50.060;21.960;2023-02-01T17:34:20;1.50;93.90
68485;DHT22;55472;50.060;21.960;2023-02-01T17:36:48;1.40;94.70
68485;DHT22;55472;50.060;21.960;2023-02-01T17:39:15;1.40;95.20
68485;DHT22;55472;50.060;21.960;2023-02-01T17:42:00;1.30;95.60
68485;DHT22;55472;50.060;21.960;2023-02-01T17:44:28;1.30;96.10
68485;DHT22;55472;50.060;21.960;2023-02-01T17:46:54;1.20;96.50
68485;DHT22;55472;50.060;21.960;2023-02-01T17:49:22;1.20;96.90
68485;DHT22;55472;50.060;21.960;2023-02-01T17:51:48;1.10;97.30
68485;DHT22;55472;50.060;21.960;2023-02-01T17:54:16;1.10;97.70
68485;DHT22;55472;50.060;21.960;2023-02-01T17:56:45;1.10;97.90
68485;DHT22;55472;50.060;21.960;2023-02-01T17:59:14;1.00;98.10
68485;DHT22;55472;50.060;21.960;2023-02-01T18:01:41;1.00;98.50
68485;DHT22;55472;50.060;21.960;2023-02-01T18:04:11;1.00;98.90
68485;DHT22;55472;50.060;21.960;2023-02-01T18:06:41;0.90;99.30
68485;DHT22;55472;50.060;21.960;2023-02-01T18:09:07;0.90;99.70
68485;DHT22;55472;50.060;21.960;2023-02-01T18:11:33;0.90;99.90
68485;DHT22;55472;50.060;21.960;2023-02-01T18:14:00;0.90;99.90
68485;DHT22;55472;50.060;21.960;2023-02-01T18:16:29;0.80;99.90
68485;DHT22;55472;50.060;21.960;2023-02-01T18:18:57;0.80;99.90
68485;DHT22;55472;50.060;21.960;2023-02-01T18:21:34;0.80;99.90
68485;DHT22;55472;50.060;21.960;2023-02-01T18:24:02;0.80;99.90
68485;DHT22;55472;50.060;21.960;2023-02-01T18:26:29;0.90;99.90
68485;DHT22;55472;50.060;21.960;2023-02-01T18:28:55;0.90;99.90
68485;DHT22;55472;50.060;21.960;2023-02-01T18:31:27;0.90;99.90
68485;DHT22;55472;50.060;21.960;2023-02-01T18:33:57;0.90;99.90
68485;DHT22;55472;50.060;21.960;2023-02-01T18:36:25;1.00;99.90
68485;DHT22;55472;50.060;21.960;2023-02-01T18:38:55;1.00;99.90
68485;DHT22;55472;50.060;21.960;2023-02-01T18:41:22;1.00;99.90
68485;DHT22;55472;50.060;21.960;2023-02-01T18:43:50;1.00;99.90
68485;DHT22;55472;50.060;21.960;2023-02-01T18:46:17;1.00;99.90
68485;DHT22;55472;50.060;21.960;2023-02-01T18:48:44;1.10;99.90
68485;DHT22;55472;50.060;21.960;2023-02-01T18:51:12;1.10;99.90
68485;DHT22;55472;50.060;21.960;2023-02-01T18:53:42;1.10;99.90
68485;DHT22;55472;50.060;21.960;2023-02-01T18:56:13;1.20;99.90
68485;DHT22;55472;50.060;21.960;2023-02-01T18:58:40;1.20;99.90